Time;durP1;ratioP1;P1;durP2;ratioP2;P2;SDS_P1;SDS_P2;PMS_P1;PMS_P2;Temp;Humidity;BMP_temperature;BMP_pressure;BME280_temperature;BME280_humidity;BME280_pressure;Samples;Min_cycle;Max_cycle;Signal;HPM_P1;HPM_P2
2023/12/03 00:00:54;;;;;;;80.03;34.45;;;;;;;-144.73;100.00;54703.28;4975182;28;20041;-74
2023/12/03 00:03:20;;;;;;;84.55;35.03;;;;;;;-144.73;100.00;54645.78;4981038;28;20022;-74
2023/12/03 00:05:46;;;;;;;90.60;34.60;;;;;;;-144.73;100.00;54703.28;4972194;28;20061;-74
2023/12/03 00:08:11;;;;;;;86.60;36.20;;;;;;;-144.73;100.00;54641.69;4988823;28;20477;-74
2023/12/03 00:10:37;;;;;;;84.33;35.87;;;;;;;-144.73;100.00;54674.53;4990534;28;20037;-74
2023/12/03 00:13:02;;;;;;;85.53;34.95;;;;;;;-144.73;100.00;54701.22;4992643;28;20056;-74
2023/12/03 00:15:28;;;;;;;98.63;37.10;;;;;;;-144.73;100.00;54699.16;4990641;28;20125;-74
2023/12/03 00:17:53;;;;;;;75.57;33.72;;;;;;;-144.73;100.00;54695.06;4979988;28;20042;-74
2023/12/03 00:20:19;;;;;;;76.13;33.90;;;;;;;-144.73;100.00;54645.78;4975269;28;20038;-74
2023/12/03 00:22:46;;;;;;;70.50;30.70;;;;;;;-144.73;100.00;54684.78;4977265;28;20109;-74
2023/12/03 00:25:11;;;;;;;90.00;38.40;;;;;;;-144.73;100.00;54645.78;4978926;28;20121;-74
2023/12/03 00:27:36;;;;;;;84.00;34.53;;;;;;;-144.73;100.00;54641.69;4975900;28;20062;-74
2023/12/03 00:30:02;;;;;;;79.70;35.70;;;;;;;-144.73;100.00;54678.63;4978650;28;20108;-74
2023/12/03 00:32:28;;;;;;;87.43;36.47;;;;;;;-144.73;100.00;54717.66;4975132;28;20082;-74
2023/12/03 00:34:53;;;;;;;86.40;35.10;;;;;;;-144.73;100.00;54699.16;4983940;28;20042;-74
2023/12/03 00:37:18;;;;;;;87.90;35.55;;;;;;;-144.73;100.00;54641.69;4987405;28;20112;-74
2023/12/03 00:39:44;;;;;;;84.63;35.10;;;;;;;-144.73;100.00;54670.44;4990519;28;20041;-74
2023/12/03 00:42:09;;;;;;;90.40;36.63;;;;;;;-144.73;100.00;54670.44;4990622;28;20027;-74
2023/12/03 00:44:34;;;;;;;91.07;36.33;;;;;;;-144.73;100.00;54670.44;4990804;28;20121;-74
2023/12/03 00:47:00;;;;;;;90.20;37.30;;;;;;;-144.73;100.00;54678.63;4987541;28;20030;-73
2023/12/03 00:49:25;;;;;;;92.70;38.55;;;;;;;-144.73;100.00;54660.16;4982111;28;20019;-74
2023/12/03 00:51:50;;;;;;;88.70;38.17;;;;;;;-144.73;100.00;54670.44;4977901;28;20084;-73
2023/12/03 00:54:17;;;;;;;93.18;37.75;;;;;;;-144.73;100.00;54670.44;4980900;28;20038;-73
2023/12/03 00:56:42;;;;;;;91.22;36.53;;;;;;;-144.73;100.00;54637.59;4985587;28;20046;-73
2023/12/03 00:59:08;;;;;;;90.23;37.20;;;;;;;-144.73;100.00;54695.06;4976974;28;20030;-73
2023/12/03 01:01:33;;;;;;;95.33;39.53;;;;;;;-144.73;100.00;54670.44;4979881;28;20117;-73
2023/12/03 01:03:58;;;;;;;95.60;37.73;;;;;;;-144.73;100.00;54690.97;4976136;28;20033;-73
2023/12/03 01:06:24;;;;;;;91.83;38.47;;;;;;;-144.73;100.00;54674.53;4981064;28;20043;-74
2023/12/03 01:08:49;;;;;;;87.90;34.57;;;;;;;-144.73;100.00;54682.75;4976666;28;20027;-74
2023/12/03 01:11:15;;;;;;;87.23;36.20;;;;;;;-144.73;100.00;54690.97;4988595;28;20038;-74
2023/12/03 01:13:40;;;;;;;83.07;35.70;;;;;;;-144.73;100.00;54674.53;4982061;28;20018;-74
2023/12/03 01:16:14;;;;;;;86.63;34.17;;;;;;;-144.73;100.00;54672.47;4979183;28;20039;-74
2023/12/03 01:18:39;;;;;;;84.35;34.03;;;;;;;-144.73;100.00;54695.06;4993897;28;20072;-74
2023/12/03 01:21:05;;;;;;;87.55;35.15;;;;;;;-144.73;100.00;54674.53;4992036;28;20070;-74
2023/12/03 01:23:30;;;;;;;88.78;36.25;;;;;;;-144.73;100.00;54686.84;4993372;28;20133;-74
2023/12/03 01:25:56;;;;;;;88.43;35.97;;;;;;;-144.73;100.00;54629.38;4994502;28;20038;-74
2023/12/03 01:28:21;;;;;;;98.65;38.45;;;;;;;-144.73;100.00;54699.16;4983238;28;20030;-74
2023/12/03 01:30:47;;;;;;;96.25;35.83;;;;;;;-144.73;100.00;54686.84;4974717;28;20042;-74
2023/12/03 01:33:12;;;;;;;80.87;34.70;;;;;;;-144.73;100.00;54690.97;4980930;28;20106;-74
2023/12/03 01:35:37;;;;;;;87.37;33.43;;;;;;;-144.73;100.00;54658.13;4985047;28;20048;-73
2023/12/03 01:38:03;;;;;;;82.20;33.57;;;;;;;-144.73;100.00;54682.75;4985558;28;20038;-74
2023/12/03 01:40:28;;;;;;;88.43;35.67;;;;;;;-144.73;100.00;54688.91;4979713;28;20039;-74
2023/12/03 01:42:54;;;;;;;88.37;35.83;;;;;;;-144.73;100.00;54678.63;4977548;28;20037;-74
2023/12/03 01:45:19;;;;;;;83.40;34.80;;;;;;;-144.73;100.00;54674.53;4972872;28;20046;-74
2023/12/03 01:47:44;;;;;;;84.47;35.03;;;;;;;-144.73;100.00;54699.16;4979077;28;20092;-74
2023/12/03 01:50:12;;;;;;;91.20;35.70;;;;;;;-144.73;100.00;54670.44;4989368;28;20468;-74
2023/12/03 01:52:38;;;;;;;76.70;31.03;;;;;;;-144.73;100.00;54658.13;4976703;28;20018;-74
2023/12/03 01:55:05;;;;;;;76.33;31.80;;;;;;;-144.73;100.00;54695.06;4977643;28;20047;-74
2023/12/03 01:57:31;;;;;;;71.40;30.93;;;;;;;-144.73;100.00;54686.84;4985378;28;20034;-74
2023/12/03 01:59:59;;;;;;;69.73;31.53;;;;;;;-144.73;100.00;54674.53;4976651;28;20086;-73
2023/12/03 02:02:27;;;;;;;60.03;24.55;;;;;;;-144.73;100.00;54662.22;4978750;28;20105;-73
2023/12/03 02:04:52;;;;;;;65.37;27.83;;;;;;;-144.73;100.00;54678.63;4980228;28;20086;-73
2023/12/03 02:07:18;;;;;;;62.43;26.47;;;;;;;-144.73;100.00;54670.44;4980452;28;20088;-73
2023/12/03 02:09:44;;;;;;;54.10;24.07;;;;;;;-144.73;100.00;54670.44;4994256;28;20026;-73
2023/12/03 02:12:09;;;;;;;51.33;24.45;;;;;;;-144.73;100.00;54660.16;4990604;28;20029;-73
2023/12/03 02:14:35;;;;;;;47.85;22.95;;;;;;;-144.73;100.00;54674.53;4980520;28;20157;-73
2023/12/03 02:17:00;;;;;;;55.08;25.80;;;;;;;-144.73;100.00;54654.00;4977845;28;20026;-73
2023/12/03 02:19:25;;;;;;;53.00;24.48;;;;;;;-144.73;100.00;54699.16;4990464;28;20030;-73
2023/12/03 02:21:51;;;;;;;55.05;24.48;;;;;;;-144.73;100.00;54674.53;4982417;28;20030;-73
2023/12/03 02:24:16;;;;;;;50.40;23.75;;;;;;;-144.73;100.00;54686.84;4982024;28;20026;-73
2023/12/03 02:26:41;;;;;;;53.58;24.70;;;;;;;-144.73;100.00;54686.84;4979679;28;20036;-73
2023/12/03 02:29:07;;;;;;;52.08;25.10;;;;;;;-144.73;100.00;54703.28;4979662;28;20117;-73
2023/12/03 02:31:32;;;;;;;54.55;24.20;;;;;;;-144.73;100.00;54690.97;4991610;28;20529;-73
2023/12/03 02:34:03;;;;;;;52.35;22.90;;;;;;;-144.73;100.00;54682.75;4978556;28;20375;-73
2023/12/03 02:36:28;;;;;;;55.08;24.88;;;;;;;-144.73;100.00;54686.84;4981755;28;20051;-73
2023/12/03 02:38:54;;;;;;;53.88;25.58;;;;;;;-144.73;100.00;54654.00;4977600;28;20023;-74
2023/12/03 02:41:22;;;;;;;56.17;24.35;;;;;;;-144.73;100.00;54658.13;4976673;28;20540;-73
2023/12/03 02:43:48;;;;;;;49.15;23.45;;;;;;;-144.73;100.00;54686.84;4972882;28;20054;-73
2023/12/03 02:46:13;;;;;;;55.15;25.23;;;;;;;-144.73;100.00;54662.22;4985179;28;20023;-74
2023/12/03 02:48:38;;;;;;;61.10;27.95;;;;;;;-144.73;100.00;54654.00;4991955;28;20089;-73
2023/12/03 02:51:04;;;;;;;63.17;28.38;;;;;;;-144.73;100.00;54674.53;4991997;28;20592;-74
2023/12/03 02:53:29;;;;;;;59.25;27.00;;;;;;;-144.73;100.00;54662.22;4993222;28;20109;-73
2023/12/03 02:55:55;;;;;;;63.50;28.98;;;;;;;-144.73;100.00;54658.13;4990721;28;20077;-73
2023/12/03 02:58:21;;;;;;;71.82;31.85;;;;;;;-144.73;100.00;54670.44;4971948;28;20046;-73
2023/12/03 03:00:46;;;;;;;70.82;28.67;;;;;;;-144.73;100.00;54670.44;4983524;28;20038;-74
2023/12/03 03:03:11;;;;;;;67.65;30.60;;;;;;;-144.73;100.00;54690.97;4972175;28;20077;-73
2023/12/03 03:05:37;;;;;;;72.75;29.85;;;;;;;-144.73;100.00;54670.44;4971954;28;20042;-73
2023/12/03 03:08:02;;;;;;;73.30;29.63;;;;;;;-144.73;100.00;54662.22;4982382;28;20042;-73
2023/12/03 03:10:27;;;;;;;94.78;31.70;;;;;;;-144.73;100.00;54674.53;4978016;28;20153;-73
2023/12/03 03:12:53;;;;;;;89.50;34.03;;;;;;;-144.73;100.00;54670.44;4983520;28;20031;-74
2023/12/03 03:15:18;;;;;;;93.25;35.28;;;;;;;-144.73;100.00;54641.69;4982188;28;20109;-74
2023/12/03 03:17:43;;;;;;;105.73;38.43;;;;;;;-144.73;100.00;54645.78;4983967;28;20493;-73
2023/12/03 03:20:09;;;;;;;99.67;35.93;;;;;;;-144.73;100.00;54682.75;4975638;28;20050;-73
2023/12/03 03:22:34;;;;;;;89.95;35.28;;;;;;;-144.73;100.00;54647.84;4976854;28;20023;-73
2023/12/03 03:24:59;;;;;;;91.57;35.38;;;;;;;-144.73;100.00;54674.53;4981892;28;20165;-73
2023/12/03 03:27:25;;;;;;;107.33;38.73;;;;;;;-144.73;100.00;54670.44;4989087;28;20018;-73
2023/12/03 03:29:50;;;;;;;96.83;38.20;;;;;;;-144.73;100.00;54686.84;4987204;28;20035;-74
2023/12/03 03:32:15;;;;;;;99.70;38.50;;;;;;;-144.73;100.00;54670.44;4991457;28;20089;-73
2023/12/03 03:34:41;;;;;;;104.43;37.83;;;;;;;-144.73;100.00;54686.84;4991028;28;20038;-73
2023/12/03 03:37:09;;;;;;;94.72;36.25;;;;;;;-144.73;100.00;54670.44;4987347;28;20041;-73
2023/12/03 03:39:35;;;;;;;103.83;38.07;;;;;;;-144.73;100.00;54695.06;4991123;28;20019;-74
2023/12/03 03:42:00;;;;;;;99.10;37.60;;;;;;;-144.73;100.00;54686.84;4992112;28;20018;-74
2023/12/03 03:44:25;;;;;;;101.33;37.97;;;;;;;-144.73;100.00;54684.78;4991224;28;20030;-74
2023/12/03 03:46:51;;;;;;;96.43;35.60;;;;;;;-144.73;100.00;54703.28;4985178;28;20058;-74
2023/12/03 03:49:16;;;;;;;103.23;39.10;;;;;;;-144.73;100.00;54670.44;4971953;28;20033;-74
2023/12/03 03:51:41;;;;;;;90.33;33.30;;;;;;;-144.73;100.00;54658.13;4979695;28;20034;-74
2023/12/03 03:54:07;;;;;;;99.90;36.53;;;;;;;-144.73;100.00;54699.16;4974773;28;20056;-74
2023/12/03 03:56:32;;;;;;;83.87;34.47;;;;;;;-144.73;100.00;54693.00;4975869;28;20039;-74
2023/12/03 03:58:58;;;;;;;96.43;37.47;;;;;;;-144.73;100.00;54633.47;4975315;28;20251;-74
2023/12/03 04:01:26;;;;;;;92.70;34.17;;;;;;;-144.73;100.00;54654.00;4975111;28;20357;-74
2023/12/03 04:03:52;;;;;;;74.47;32.33;;;;;;;-144.73;100.00;54676.59;4983223;28;20381;-74
2023/12/03 04:06:17;;;;;;;84.30;32.07;;;;;;;-144.73;100.00;54690.97;4977669;28;20048;-74
2023/12/03 04:08:42;;;;;;;62.80;27.40;;;;;;;-144.73;100.00;54670.44;4973039;28;20114;-74
2023/12/03 04:11:08;;;;;;;65.60;28.80;;;;;;;-144.73;100.00;54637.59;4978712;28;20035;-74
2023/12/03 04:13:33;;;;;;;67.80;29.70;;;;;;;-144.73;100.00;54658.13;4977564;28;20042;-74
2023/12/03 04:16:01;;;;;;;64.73;28.37;;;;;;;-144.73;100.00;54670.44;4974087;28;20035;-74
2023/12/03 04:18:27;;;;;;;61.40;28.73;;;;;;;-144.73;100.00;54719.69;4991768;28;20037;-74
2023/12/03 04:20:52;;;;;;;68.23;30.47;;;;;;;-144.73;100.00;54670.44;4983003;28;20044;-74
2023/12/03 04:23:18;;;;;;;74.07;31.67;;;;;;;-144.73;100.00;54662.22;4988843;28;20094;-74
2023/12/03 04:25:43;;;;;;;78.07;32.33;;;;;;;-144.73;100.00;54660.16;4989674;28;20030;-74
2023/12/03 04:28:11;;;;;;;75.85;32.58;;;;;;;-144.73;100.00;54678.63;4990079;28;20022;-74
2023/12/03 04:30:36;;;;;;;75.28;31.08;;;;;;;-144.73;100.00;54637.59;4989970;28;20041;-74
2023/12/03 04:33:02;;;;;;;71.75;30.33;;;;;;;-144.73;100.00;54682.75;4989000;28;20121;-74
2023/12/03 04:35:27;;;;;;;79.18;33.22;;;;;;;-144.73;100.00;54695.06;4990063;28;20038;-74
2023/12/03 04:37:52;;;;;;;68.35;30.75;;;;;;;-144.73;100.00;54682.75;4987453;28;20022;-74
2023/12/03 04:40:19;;;;;;;82.82;32.20;;;;;;;-144.73;100.00;54680.69;4981753;28;20146;-74
2023/12/03 04:42:44;;;;;;;79.57;31.50;;;;;;;-144.73;100.00;54658.13;4990759;28;20049;-75
2023/12/03 04:45:13;;;;;;;79.50;32.80;;;;;;;-144.73;100.00;54678.63;4986982;28;20030;-74
2023/12/03 04:47:38;;;;;;;75.68;31.10;;;;;;;-144.73;100.00;54662.22;4983230;28;20026;-74
2023/12/03 04:50:04;;;;;;;76.85;32.22;;;;;;;-144.73;100.00;54654.00;4981157;28;20038;-74
2023/12/03 04:52:29;;;;;;;68.00;28.40;;;;;;;-144.73;100.00;54643.75;4972361;28;20102;-75
2023/12/03 04:54:54;;;;;;;89.17;34.40;;;;;;;-144.73;100.00;54682.75;4987192;28;20051;-75
2023/12/03 04:57:20;;;;;;;77.53;34.43;;;;;;;-144.73;100.00;54686.84;4986669;28;20050;-74
2023/12/03 04:59:45;;;;;;;78.20;31.23;;;;;;;-144.73;100.00;54643.75;4979229;28;20026;-75
2023/12/03 05:02:10;;;;;;;78.30;31.80;;;;;;;-144.73;100.00;54707.38;4980519;28;20026;-75
2023/12/03 05:04:36;;;;;;;74.33;30.47;;;;;;;-144.73;100.00;54699.16;4974817;28;20025;-74
2023/12/03 05:07:01;;;;;;;81.10;33.43;;;;;;;-144.73;100.00;54658.13;4983365;28;20023;-75
2023/12/03 05:09:26;;;;;;;91.90;33.50;;;;;;;-144.73;100.00;54629.38;4970143;28;20030;-74
2023/12/03 05:11:51;;;;;;;89.57;35.43;;;;;;;-144.73;100.00;54670.44;4978643;28;20050;-74
2023/12/03 05:14:17;;;;;;;78.53;33.10;;;;;;;-144.73;100.00;54719.69;4986215;28;20062;-74
2023/12/03 05:16:42;;;;;;;78.97;32.70;;;;;;;-144.73;100.00;54682.75;4978552;28;20045;-73
2023/12/03 05:19:07;;;;;;;91.00;36.10;;;;;;;-144.73;100.00;54686.84;4981865;28;20117;-72
2023/12/03 05:21:33;;;;;;;78.20;33.47;;;;;;;-144.73;100.00;54678.63;4981024;28;20038;-72
2023/12/03 05:23:58;;;;;;;78.20;31.60;;;;;;;-144.73;100.00;54678.63;4970750;28;20053;-75
2023/12/03 05:26:24;;;;;;;84.60;35.57;;;;;;;-144.73;100.00;54695.06;4982978;28;20053;-73
2023/12/03 05:28:49;;;;;;;98.83;36.90;;;;;;;-144.73;100.00;54711.47;4980849;28;20022;-72
2023/12/03 05:31:14;;;;;;;88.50;35.00;;;;;;;-144.73;100.00;54645.78;4976090;28;20038;-73
2023/12/03 05:33:41;;;;;;;110.73;37.60;;;;;;;-144.73;100.00;54670.44;4978685;28;20034;-73
2023/12/03 05:36:06;;;;;;;114.23;38.93;;;;;;;-144.73;100.00;54674.53;4982027;28;20046;-73
2023/12/03 05:38:32;;;;;;;103.70;39.07;;;;;;;-144.73;100.00;54658.13;4981205;28;20076;-74
2023/12/03 05:40:57;;;;;;;86.87;33.70;;;;;;;-144.73;100.00;54686.84;4973393;28;20505;-74
2023/12/03 05:43:23;;;;;;;87.87;33.50;;;;;;;-144.73;100.00;54654.00;4976251;28;20027;-74
2023/12/03 05:45:48;;;;;;;82.50;33.67;;;;;;;-144.73;100.00;54678.63;4973637;28;20111;-73
2023/12/03 05:48:15;;;;;;;87.30;34.40;;;;;;;-144.73;100.00;54670.44;4973037;28;20035;-73
2023/12/03 05:50:40;;;;;;;102.30;37.97;;;;;;;-144.73;100.00;54703.28;4974432;28;20034;-75
2023/12/03 05:53:06;;;;;;;90.43;33.23;;;;;;;-144.73;100.00;54678.63;4972399;28;20113;-74
2023/12/03 05:55:31;;;;;;;105.07;37.80;;;;;;;-144.73;100.00;54670.44;4972245;28;20031;-74
2023/12/03 05:58:00;;;;;;;99.20;37.97;;;;;;;-144.73;100.00;54645.78;4972343;28;20027;-74
2023/12/03 06:00:26;;;;;;;104.67;39.17;;;;;;;-144.73;100.00;54672.47;4974062;28;20109;-74
2023/12/03 06:02:52;;;;;;;102.53;37.23;;;;;;;-144.73;100.00;54690.97;4975154;28;20094;-74
2023/12/03 06:05:18;;;;;;;96.03;34.40;;;;;;;-144.73;100.00;54686.84;4974964;28;20043;-74
2023/12/03 06:07:43;;;;;;;94.30;35.80;;;;;;;-144.73;100.00;54658.13;4970641;28;20049;-75
2023/12/03 06:10:09;;;;;;;102.07;37.80;;;;;;;-144.73;100.00;54670.44;4971512;28;20066;-74
2023/12/03 06:12:37;;;;;;;135.80;42.73;;;;;;;-144.73;100.00;54662.22;4972330;28;20026;-74
2023/12/03 06:15:07;;;;;;;115.63;39.67;;;;;;;-144.73;100.00;54637.59;4973172;28;20053;-74
2023/12/03 06:17:35;;;;;;;126.77;41.47;;;;;;;-144.73;100.00;54678.63;4972165;28;20019;-73
2023/12/03 06:20:01;;;;;;;112.03;38.83;;;;;;;-144.73;100.00;54641.69;4970652;28;20054;-74
2023/12/03 06:22:27;;;;;;;120.13;42.17;;;;;;;-144.73;100.00;54643.75;4968194;28;20055;-73
2023/12/03 06:24:52;;;;;;;111.83;39.40;;;;;;;-144.73;100.00;54711.47;4971473;28;20178;-74
2023/12/03 06:27:17;;;;;;;115.63;37.23;;;;;;;-144.73;100.00;54695.06;4981833;28;20073;-74
2023/12/03 06:29:45;;;;;;;116.90;41.20;;;;;;;-144.73;100.00;54633.47;4992351;28;20477;-74
2023/12/03 06:32:11;;;;;;;107.87;36.83;;;;;;;-144.73;100.00;54654.00;4990881;28;20050;-73
2023/12/03 06:34:37;;;;;;;114.13;38.20;;;;;;;-144.73;100.00;54654.00;4987776;28;20042;-73
2023/12/03 06:37:04;;;;;;;100.27;36.83;;;;;;;-144.73;100.00;54686.84;4978004;28;20405;-73
2023/12/03 06:39:30;;;;;;;95.67;37.40;;;;;;;-144.73;100.00;54670.44;4970990;28;20023;-73
2023/12/03 06:41:55;;;;;;;101.17;37.60;;;;;;;-144.73;100.00;54699.16;4972995;28;20078;-74
2023/12/03 06:44:20;;;;;;;96.00;36.53;;;;;;;-144.73;100.00;54658.13;4972157;28;20026;-74
2023/12/03 06:46:46;;;;;;;96.57;34.97;;;;;;;-144.73;100.00;54621.16;4973308;28;20061;-74
2023/12/03 06:49:11;;;;;;;96.13;36.03;;;;;;;-144.73;100.00;54678.63;4971698;28;20038;-74
2023/12/03 06:51:36;;;;;;;93.70;35.80;;;;;;;-144.73;100.00;54690.97;4972622;28;20085;-74
2023/12/03 06:54:03;;;;;;;99.70;36.13;;;;;;;-144.73;100.00;54688.91;4971533;28;20090;-74
2023/12/03 06:56:28;;;;;;;109.80;39.90;;;;;;;-144.73;100.00;54682.75;4971983;28;20069;-73
2023/12/03 06:58:56;;;;;;;128.38;41.95;;;;;;;-144.73;100.00;54682.75;4971094;28;20066;-74
2023/12/03 07:01:22;;;;;;;99.10;37.07;;;;;;;-144.73;100.00;54690.97;4971526;28;20034;-73
2023/12/03 07:03:47;;;;;;;105.68;38.00;;;;;;;-144.73;100.00;54727.91;4972933;28;20029;-74
2023/12/03 07:06:13;;;;;;;112.97;40.95;;;;;;;-144.73;100.00;54670.44;4974517;28;20034;-74
2023/12/03 07:08:38;;;;;;;102.20;37.90;;;;;;;-144.73;100.00;54693.00;4971003;28;20121;-73
2023/12/03 07:11:04;;;;;;;104.27;38.73;;;;;;;-144.73;100.00;54686.84;4972075;28;20046;-74
2023/12/03 07:13:29;;;;;;;116.83;41.33;;;;;;;-144.73;100.00;54670.44;4971236;28;20023;-74
2023/12/03 07:15:54;;;;;;;115.33;42.10;;;;;;;-144.73;100.00;54699.16;4970810;28;20043;-74
2023/12/03 07:18:19;;;;;;;111.67;39.07;;;;;;;-144.73;100.00;54654.00;4971426;28;20026;-73
2023/12/03 07:20:45;;;;;;;111.60;41.63;;;;;;;-144.73;100.00;54674.53;4971054;28;20513;-73
2023/12/03 07:23:10;;;;;;;96.70;36.87;;;;;;;-144.73;100.00;54656.06;4972181;28;20018;-73
2023/12/03 07:25:36;;;;;;;122.00;41.03;;;;;;;-144.73;100.00;54645.78;4970917;28;20027;-73
2023/12/03 07:28:01;;;;;;;159.83;46.93;;;;;;;-144.73;100.00;54674.53;4970819;28;20035;-73
2023/12/03 07:30:27;;;;;;;140.57;42.60;;;;;;;-144.73;100.00;54658.13;4970709;28;20042;-73
2023/12/03 07:32:52;;;;;;;152.37;44.17;;;;;;;-144.73;100.00;54682.75;4972076;28;20027;-73
2023/12/03 07:35:18;;;;;;;203.77;50.60;;;;;;;-144.73;100.00;54654.00;4970111;28;20031;-75
2023/12/03 07:37:43;;;;;;;353.17;60.10;;;;;;;-144.73;100.00;54647.84;4986616;28;20022;-73
2023/12/03 07:40:11;;;;;;;369.83;57.07;;;;;;;-144.73;100.00;54649.91;4985774;28;20058;-74
2023/12/03 07:42:37;;;;;;;353.53;57.87;;;;;;;-144.73;100.00;54658.13;4990594;28;20030;-73
2023/12/03 07:45:02;;;;;;;283.77;54.17;;;;;;;-144.73;100.00;54690.97;4986316;28;20045;-73
2023/12/03 07:47:29;;;;;;;416.13;56.87;;;;;;;-144.73;100.00;54674.53;4982925;28;20022;-71
2023/12/03 07:49:55;;;;;;;268.00;55.23;;;;;;;-144.73;100.00;54633.47;4974287;28;20043;-71
2023/12/03 07:52:20;;;;;;;314.73;58.53;;;;;;;-144.73;100.00;54690.97;4986024;28;20057;-71
2023/12/03 07:54:46;;;;;;;416.47;55.30;;;;;;;-144.73;100.00;54629.38;4978050;28;20046;-71
2023/12/03 07:57:11;;;;;;;350.60;50.00;;;;;;;-144.73;100.00;54703.28;4973793;28;20045;-71
2023/12/03 07:59:36;;;;;;;520.30;71.10;;;;;;;-144.73;100.00;54686.84;4976191;28;20128;-71
2023/12/03 08:02:02;;;;;;;909.03;86.63;;;;;;;-144.73;100.00;54621.16;4975300;28;20023;-71
2023/12/03 08:04:28;;;;;;;500.30;63.37;;;;;;;-144.73;100.00;54645.78;4976458;28;20023;-71
2023/12/03 08:06:54;;;;;;;561.97;64.13;;;;;;;-144.73;100.00;54670.44;4972281;28;20027;-71
2023/12/03 08:09:20;;;;;;;399.33;55.13;;;;;;;-144.73;100.00;54649.91;4970557;28;20401;-72
2023/12/03 08:11:45;;;;;;;383.50;51.93;;;;;;;-144.73;100.00;54699.16;4971896;28;20039;-71
2023/12/03 08:14:11;;;;;;;373.40;59.03;;;;;;;-144.73;100.00;54649.91;4969914;28;20533;-71
2023/12/03 08:16:36;;;;;;;258.80;54.10;;;;;;;-144.73;100.00;54645.78;4970974;28;20043;-71
2023/12/03 08:19:01;;;;;;;274.37;52.07;;;;;;;-144.73;100.00;54684.78;4971241;28;20058;-71
2023/12/03 08:21:27;;;;;;;223.87;50.17;;;;;;;-144.73;100.00;54654.00;4969901;28;20498;-71
2023/12/03 08:23:52;;;;;;;180.80;48.67;;;;;;;-144.73;100.00;54654.00;4968643;28;20090;-71
2023/12/03 08:26:17;;;;;;;141.07;41.13;;;;;;;-144.73;100.00;54699.16;4970091;28;20039;-71
2023/12/03 08:28:43;;;;;;;166.80;44.13;;;;;;;-144.73;100.00;54662.22;4970195;28;20069;-71
2023/12/03 08:31:08;;;;;;;204.47;45.20;;;;;;;-144.73;100.00;54670.44;4969682;28;20034;-71
2023/12/03 08:33:33;;;;;;;228.20;46.60;;;;;;;-144.73;100.00;54682.75;4969573;28;20034;-71
2023/12/03 08:35:59;;;;;;;197.10;42.67;;;;;;;-144.73;100.00;54686.84;4969002;28;20047;-71
2023/12/03 08:38:24;;;;;;;146.00;39.43;;;;;;;-144.73;100.00;54654.00;4969300;28;20026;-71
2023/12/03 08:40:50;;;;;;;159.40;42.27;;;;;;;-144.73;100.00;54633.47;4969009;28;20154;-71
2023/12/03 08:43:16;;;;;;;152.33;38.40;;;;;;;-144.73;100.00;54625.28;4970153;28;20054;-70
2023/12/03 08:45:41;;;;;;;152.80;38.77;;;;;;;-144.73;100.00;54674.53;4968959;28;20054;-70
2023/12/03 08:48:07;;;;;;;161.87;38.50;;;;;;;-144.73;100.00;54654.00;4969444;28;20038;-70
2023/12/03 08:50:32;;;;;;;129.40;37.00;;;;;;;-144.73;100.00;54674.53;4965730;28;20046;-70
2023/12/03 08:52:58;;;;;;;144.07;40.23;;;;;;;-144.73;100.00;54695.06;4969396;28;20027;-70
2023/12/03 08:55:23;;;;;;;179.77;41.10;;;;;;;-144.73;100.00;54654.00;4969197;28;20039;-71
2023/12/03 08:57:49;;;;;;;157.53;40.27;;;;;;;-144.73;100.00;54621.16;4970632;28;20486;-71
2023/12/03 09:00:20;;;;;;;177.60;41.87;;;;;;;-144.73;100.00;54645.78;4969371;28;20027;-71
2023/12/03 09:02:46;;;;;;;171.80;41.03;;;;;;;-144.73;100.00;54641.69;4969859;28;20014;-70
2023/12/03 09:05:12;;;;;;;195.30;41.77;;;;;;;-144.73;100.00;54654.00;4968627;28;20039;-71
2023/12/03 09:07:38;;;;;;;232.30;43.00;;;;;;;-144.73;100.00;54690.97;4982435;28;20053;-71
2023/12/03 09:10:04;;;;;;;140.87;37.10;;;;;;;-144.73;100.00;54643.75;4990087;28;20035;-71
2023/12/03 09:12:30;;;;;;;138.17;38.80;;;;;;;-144.73;100.00;54670.44;4985293;28;20105;-70
2023/12/03 09:14:55;;;;;;;146.70;40.30;;;;;;;-144.73;100.00;54629.38;4992038;28;20632;-70
2023/12/03 09:17:21;;;;;;;178.83;45.87;;;;;;;-144.73;100.00;54645.78;4992569;28;20026;-70
2023/12/03 09:19:46;;;;;;;152.10;41.20;;;;;;;-144.73;100.00;54699.16;4993284;28;20209;-71
2023/12/03 09:22:12;;;;;;;133.50;39.23;;;;;;;-144.73;100.00;54686.84;4991756;28;20015;-70
2023/12/03 09:24:37;;;;;;;165.40;44.07;;;;;;;-144.73;100.00;54701.22;4982240;28;20041;-70
2023/12/03 09:27:03;;;;;;;158.10;42.83;;;;;;;-144.73;100.00;54686.84;4984226;28;20113;-71
2023/12/03 09:29:28;;;;;;;127.37;38.47;;;;;;;-144.73;100.00;54703.28;4965341;28;20051;-71
2023/12/03 09:31:53;;;;;;;130.90;40.97;;;;;;;-144.73;100.00;54697.13;4966177;28;20031;-70
2023/12/03 09:34:19;;;;;;;116.67;38.47;;;;;;;-144.73;100.00;54662.22;4962064;28;20050;-71
2023/12/03 09:36:44;;;;;;;119.07;38.33;;;;;;;-144.73;100.00;54682.75;4960564;28;20102;-71
2023/12/03 09:39:09;;;;;;;132.83;40.30;;;;;;;-144.73;100.00;54699.16;4964127;28;20046;-70
2023/12/03 09:41:42;;;;;;;116.17;36.00;;;;;;;-144.73;100.00;54670.44;4964684;28;20535;-71
2023/12/03 09:44:11;;;;;;;99.37;33.47;;;;;;;-144.73;100.00;54697.13;4965078;28;20027;-71
2023/12/03 09:46:38;;;;;;;111.77;35.87;;;;;;;-144.73;100.00;54637.59;4984037;28;20035;-71
2023/12/03 09:49:09;;;;;;;122.03;38.17;;;;;;;-144.73;100.00;54662.22;4962699;28;20027;-71
2023/12/03 09:51:39;;;;;;;135.07;39.93;;;;;;;-144.73;100.00;54674.53;4961869;28;20035;-70
2023/12/03 09:54:06;;;;;;;80.30;24.98;;;;;;;-144.73;100.00;54678.63;4985364;28;20031;-71
2023/12/03 09:56:33;;;;;;;99.50;31.43;;;;;;;-144.73;100.00;54654.00;4962991;28;20049;-70
2023/12/03 09:58:59;;;;;;;78.07;27.87;;;;;;;-144.73;100.00;54654.00;4977685;28;20033;-70
2023/12/03 10:01:25;;;;;;;88.87;28.63;;;;;;;-144.73;100.00;54662.22;4988244;28;20030;-70
2023/12/03 10:03:53;;;;;;;78.13;29.90;;;;;;;-144.73;100.00;54695.06;4981388;28;20077;-71
2023/12/03 10:06:22;;;;;;;101.83;32.67;;;;;;;-144.73;100.00;54686.84;4965425;28;20050;-71
2023/12/03 10:08:49;;;;;;;79.73;30.00;;;;;;;-144.73;100.00;54649.91;4985752;28;20539;-71
2023/12/03 10:11:21;;;;;;;75.57;28.00;;;;;;;-144.73;100.00;54670.44;4984229;28;20034;-70
2023/12/03 10:13:50;;;;;;;80.03;30.50;;;;;;;-144.73;100.00;54654.00;4980515;28;20015;-71
2023/12/03 10:16:15;;;;;;;86.87;27.87;;;;;;;-144.73;100.00;54662.22;4978627;28;20073;-71
2023/12/03 10:18:41;;;;;;;84.17;30.53;;;;;;;-144.73;100.00;54645.78;4988056;28;20018;-71
2023/12/03 10:21:10;;;;;;;86.50;29.63;;;;;;;-144.73;100.00;54678.63;4987578;28;20063;-71
2023/12/03 10:23:36;;;;;;;125.80;37.03;;;;;;;-144.73;100.00;54670.44;4984298;28;20050;-71
2023/12/03 10:26:11;;;;;;;99.00;33.43;;;;;;;-144.73;100.00;54678.63;4981970;28;20034;-71
2023/12/03 10:28:38;;;;;;;108.33;35.80;;;;;;;-144.73;100.00;54690.97;4986255;28;20042;-71
2023/12/03 10:31:03;;;;;;;93.67;30.07;;;;;;;-144.73;100.00;54654.00;4985714;28;20389;-71
2023/12/03 10:33:29;;;;;;;99.27;32.40;;;;;;;-144.73;100.00;54672.47;4980877;28;20018;-71
2023/12/03 10:36:02;;;;;;;98.67;33.23;;;;;;;-144.73;100.00;54658.13;4983553;28;20042;-72
2023/12/03 10:38:38;;;;;;;135.20;34.77;;;;;;;-144.73;100.00;54645.78;4965186;28;20027;-71
2023/12/03 10:41:07;;;;;;;113.97;35.07;;;;;;;-144.73;100.00;54649.91;4966067;28;20035;-68
2023/12/03 10:43:34;;;;;;;126.30;38.13;;;;;;;-144.73;100.00;54654.00;4965736;28;20022;-70
2023/12/03 10:45:59;;;;;;;117.60;36.43;;;;;;;-144.73;100.00;54658.13;4966791;28;20073;-71